Time;durP1;ratioP1;P1;durP2;ratioP2;P2;SDS_P1;SDS_P2;PMS_P1;PMS_P2;Temp;Humidity;BMP_temperature;BMP_pressure;BME280_temperature;BME280_humidity;BME280_pressure;Samples;Min_cycle;Max_cycle;Signal;HPM_P1;HPM_P2
2022/06/12 00:00:20;;;;;;;4.65;3.60;;;;;;;;;;5004330;28;20404;-85
2022/06/12 00:02:46;;;;;;;8.48;3.80;;;;;;;;;;4980677;28;20395;-86
2022/06/12 00:05:14;;;;;;;6.78;3.90;;;;;;;;;;5003054;28;20387;-85
2022/06/12 00:07:41;;;;;;;9.05;3.83;;;;;;;;;;4986058;28;20930;-86
2022/06/12 00:10:07;;;;;;;7.82;3.90;;;;;;;;;;4984443;28;20386;-86
2022/06/12 00:12:33;;;;;;;7.53;3.35;;;;;;;;;;5002663;28;20395;-86
2022/06/12 00:14:59;;;;;;;7.22;3.58;;;;;;;;;;4985170;28;20361;-86
2022/06/12 00:17:25;;;;;;;5.32;2.97;;;;;;;;;;4983907;28;20381;-87
2022/06/12 00:19:51;;;;;;;4.22;3.10;;;;;;;;;;5002966;28;20734;-86
2022/06/12 00:22:19;;;;;;;5.75;3.20;;;;;;;;;;4988276;28;20392;-85
2022/06/12 00:24:45;;;;;;;5.18;3.22;;;;;;;;;;5007528;28;20397;-86
2022/06/12 00:27:11;;;;;;;5.18;3.28;;;;;;;;;;5027143;28;20422;-86
2022/06/12 00:29:39;;;;;;;4.05;2.95;;;;;;;;;;5008945;28;20433;-87
2022/06/12 00:32:05;;;;;;;5.20;3.57;;;;;;;;;;4994659;28;20449;-86
2022/06/12 00:34:37;;;;;;;4.88;3.33;;;;;;;;;;4985880;28;20893;-85
2022/06/12 00:37:03;;;;;;;4.43;3.25;;;;;;;;;;4985957;28;20420;-86
2022/06/12 00:39:32;;;;;;;4.90;3.10;;;;;;;;;;4986207;28;20461;-85
2022/06/12 00:41:59;;;;;;;4.55;3.45;;;;;;;;;;4983991;28;20423;-85
2022/06/12 00:44:27;;;;;;;4.38;3.20;;;;;;;;;;5000610;28;20437;-85
2022/06/12 00:46:57;;;;;;;6.10;3.75;;;;;;;;;;5020299;28;20408;-86
2022/06/12 00:49:26;;;;;;;4.25;3.42;;;;;;;;;;5004264;28;20446;-86
2022/06/12 00:51:54;;;;;;;4.43;3.42;;;;;;;;;;5020760;28;20403;-86
2022/06/12 00:54:21;;;;;;;5.60;3.72;;;;;;;;;;5020016;28;21654;-86
2022/06/12 00:56:50;;;;;;;3.78;3.20;;;;;;;;;;5021447;28;20370;-86
2022/06/12 00:59:18;;;;;;;5.07;3.70;;;;;;;;;;5013502;28;20979;-86
2022/06/12 01:01:49;;;;;;;5.88;3.67;;;;;;;;;;4993878;28;20382;-87
2022/06/12 01:07:03;;;;;;;4.13;3.20;;;;;;;;;;5010828;28;20422;-86
2022/06/12 01:09:32;;;;;;;4.45;3.10;;;;;;;;;;4993520;28;20869;-87
2022/06/12 01:12:00;;;;;;;3.70;3.40;;;;;;;;;;4993666;28;20404;-85
2022/06/12 01:14:27;;;;;;;4.80;3.63;;;;;;;;;;5010881;28;20695;-86
2022/06/12 01:16:56;;;;;;;6.37;3.40;;;;;;;;;;4993329;28;20379;-86
2022/06/12 01:19:25;;;;;;;4.30;3.50;;;;;;;;;;4993287;28;20498;-86
2022/06/12 01:22:10;;;;;;;3.83;3.20;;;;;;;;;;4992934;28;20769;-86
2022/06/12 01:24:50;;;;;;;5.57;3.67;;;;;;;;;;5011075;28;20466;-86
2022/06/12 01:27:19;;;;;;;5.97;3.53;;;;;;;;;;4993228;28;20502;-86
2022/06/12 01:30:06;;;;;;;5.53;3.45;;;;;;;;;;4993252;28;20778;-86
2022/06/12 01:32:35;;;;;;;5.63;3.80;;;;;;;;;;5009744;28;20403;-86
2022/06/12 01:35:01;;;;;;;3.67;3.38;;;;;;;;;;4993012;28;20757;-86
2022/06/12 01:37:30;;;;;;;5.70;3.80;;;;;;;;;;4992830;28;20406;-86
2022/06/12 01:40:16;;;;;;;5.70;3.63;;;;;;;;;;5010678;28;20382;-85
2022/06/12 01:42:53;;;;;;;5.10;3.67;;;;;;;;;;5011715;28;20383;-86
2022/06/12 01:45:28;;;;;;;6.07;4.00;;;;;;;;;;4992814;28;20434;-85
2022/06/12 01:47:58;;;;;;;5.65;3.75;;;;;;;;;;4992569;28;20406;-86
2022/06/12 01:50:37;;;;;;;5.72;3.78;;;;;;;;;;4992439;28;20383;-85
2022/06/12 01:53:09;;;;;;;5.85;3.83;;;;;;;;;;4992985;28;20528;-86
2022/06/12 01:55:56;;;;;;;4.70;3.80;;;;;;;;;;4992718;28;20387;-86
2022/06/12 01:58:29;;;;;;;4.88;3.80;;;;;;;;;;5010248;28;20371;-86
2022/06/12 02:01:01;;;;;;;6.05;3.90;;;;;;;;;;4992515;28;20391;-85
2022/06/12 02:03:34;;;;;;;6.93;4.22;;;;;;;;;;5010048;28;20367;-86
2022/06/12 02:06:08;;;;;;;5.43;3.42;;;;;;;;;;5009868;28;20387;-86
2022/06/12 02:08:38;;;;;;;5.10;3.70;;;;;;;;;;4992833;28;20387;-87
2022/06/12 02:14:02;;;;;;;4.82;3.70;;;;;;;;;;5010781;28;20462;-86
2022/06/12 02:16:33;;;;;;;5.93;3.95;;;;;;;;;;5009864;28;20446;-86
2022/06/12 02:19:03;;;;;;;4.60;3.97;;;;;;;;;;4992228;28;20873;-86
2022/06/12 02:21:33;;;;;;;4.60;3.73;;;;;;;;;;4992019;28;20390;-86
2022/06/12 02:24:18;;;;;;;3.87;3.47;;;;;;;;;;5009733;28;20441;-86
2022/06/12 02:26:58;;;;;;;4.47;3.88;;;;;;;;;;5009513;28;20417;-87
2022/06/12 02:29:26;;;;;;;4.78;3.85;;;;;;;;;;4992688;28;20387;-85
2022/06/12 02:31:53;;;;;;;5.00;3.90;;;;;;;;;;5009927;28;20398;-86
2022/06/12 02:34:24;;;;;;;4.57;3.90;;;;;;;;;;5010313;28;20387;-86
2022/06/12 02:36:52;;;;;;;4.05;3.65;;;;;;;;;;4992049;28;20533;-86
2022/06/12 02:39:20;;;;;;;3.97;3.60;;;;;;;;;;4991931;28;20885;-86
2022/06/12 02:41:58;;;;;;;4.03;3.63;;;;;;;;;;4991964;28;20379;-86
2022/06/12 02:44:39;;;;;;;3.92;3.53;;;;;;;;;;5009864;28;21251;-86
2022/06/12 02:47:07;;;;;;;5.18;3.80;;;;;;;;;;5009868;28;20403;-87
2022/06/12 02:49:34;;;;;;;5.22;3.90;;;;;;;;;;4991974;28;20390;-86
2022/06/12 02:52:16;;;;;;;5.13;4.40;;;;;;;;;;4992064;28;20475;-85
2022/06/12 02:55:03;;;;;;;5.90;4.40;;;;;;;;;;5009553;28;20478;-88
2022/06/12 02:57:40;;;;;;;4.97;3.90;;;;;;;;;;4992038;28;20371;-88
2022/06/12 03:00:09;;;;;;;4.30;3.65;;;;;;;;;;5009251;28;20474;-85
2022/06/12 03:02:38;;;;;;;5.15;4.38;;;;;;;;;;4991715;28;20729;-86
2022/06/12 03:05:20;;;;;;;5.10;4.60;;;;;;;;;;4991944;28;20382;-88
2022/06/12 03:07:47;;;;;;;9.38;6.80;;;;;;;;;;5010285;28;20391;-90
2022/06/12 03:10:16;;;;;;;11.02;7.60;;;;;;;;;;4991593;28;20414;-87
2022/06/12 03:12:42;;;;;;;11.20;8.37;;;;;;;;;;4992866;28;20403;-88
2022/06/12 03:15:28;;;;;;;9.88;8.00;;;;;;;;;;4994787;28;21208;-90
2022/06/12 03:17:56;;;;;;;9.00;8.10;;;;;;;;;;4992331;28;20398;-89
2022/06/12 03:20:23;;;;;;;10.40;9.10;;;;;;;;;;4995060;28;20489;-90
2022/06/12 03:23:00;;;;;;;11.75;9.30;;;;;;;;;;4992566;28;20391;-86
2022/06/12 03:25:32;;;;;;;13.65;9.75;;;;;;;;;;4992736;28;20387;-87
2022/06/12 03:28:22;;;;;;;13.57;10.50;;;15.80;99.90;;;;;;4992694;28;20383;-89
2022/06/12 03:30:53;;;;;;;11.13;9.97;;;15.90;99.90;;;;;;4993054;28;20950;-86
2022/06/12 03:33:47;;;;;;;11.95;10.30;;;15.80;99.90;;;;;;5010006;28;20410;-86
2022/06/12 03:36:15;;;;;;;12.50;11.13;;;15.80;99.90;;;;;;4981297;28;20773;-84
2022/06/12 03:38:53;;;;;;;12.88;11.25;;;15.90;99.90;;;;;;4993512;28;21025;-87
2022/06/12 03:41:38;;;;;;;15.65;13.05;;;16.00;99.90;;;;;;5013883;28;20379;-84
2022/06/12 03:44:16;;;;;;;11.95;10.85;;;16.00;99.90;;;;;;5013709;28;20429;-84
2022/06/12 03:47:00;;;;;;;12.70;11.43;;;16.00;99.90;;;;;;4996571;28;20423;-87
2022/06/12 03:49:33;;;;;;;14.93;13.32;;;16.00;99.90;;;;;;5015412;28;20695;-86
2022/06/12 03:52:15;;;;;;;13.57;12.15;;;16.10;99.90;;;;;;4995689;28;20406;-85
2022/06/12 03:54:56;;;;;;;15.77;14.07;;;16.30;99.90;;;;;;4991368;28;20749;-83
2022/06/12 03:57:52;;;;;;;15.05;13.45;;;16.10;99.90;;;;;;4995984;28;20410;-85
2022/06/12 04:00:21;;;;;;;16.73;15.02;;;15.90;99.90;;;;;;4994896;28;20909;-85
2022/06/12 04:03:12;;;;;;;16.38;14.77;;;15.80;99.90;;;;;;4995264;28;20451;-86
2022/06/12 04:05:42;;;;;;;16.80;15.13;;;15.90;99.90;;;;;;4967319;28;20394;-85
2022/06/12 04:08:12;;;;;;;18.08;16.27;;;16.20;99.90;;;;;;5012007;28;20394;-85
2022/06/12 04:10:40;;;;;;;19.13;17.23;;;16.10;99.90;;;;;;4993729;28;20935;-85
2022/06/12 04:13:10;;;;;;;18.40;16.70;;;16.10;99.90;;;;;;4993674;28;20407;-85
2022/06/12 04:15:45;;;;;;;18.25;16.45;;;16.10;99.90;;;;;;5012353;28;20405;-87
2022/06/12 04:18:11;;;;;;;19.00;17.02;;;16.10;99.90;;;;;;5012021;28;20415;-86
2022/06/12 04:21:00;;;;;;;17.73;16.13;;;16.10;99.90;;;;;;5011525;28;20383;-83
2022/06/12 04:23:51;;;;;;;19.83;17.73;;;16.20;99.90;;;;;;5011810;28;20391;-83
2022/06/12 04:26:34;;;;;;;19.30;17.10;;;16.30;99.90;;;;;;4994070;28;20383;-84
2022/06/12 04:29:04;;;;;;;17.90;16.23;;;16.30;99.90;;;;;;4994219;28;20485;-85
2022/06/12 04:31:32;;;;;;;19.97;18.10;;;16.40;99.90;;;;;;5011817;28;20383;-84
2022/06/12 04:34:09;;;;;;;18.40;16.73;;;16.40;99.90;;;;;;5012215;28;20399;-85
2022/06/12 04:36:35;;;;;;;19.35;17.48;;;16.40;99.90;;;;;;5011978;28;20379;-85
2022/06/12 04:39:02;;;;;;;19.40;17.35;;;16.50;99.90;;;;;;5011729;28;20422;-84
2022/06/12 04:41:31;;;;;;;19.40;17.50;;;16.50;99.90;;;;;;4994295;28;20382;-84
2022/06/12 04:43:56;;;;;;;15.90;14.60;;;16.50;99.90;;;;;;4994402;28;20458;-85
2022/06/12 04:46:23;;;;;;;17.97;16.27;;;16.50;99.90;;;;;;4994281;28;20558;-85
2022/06/12 04:48:51;;;;;;;18.52;16.73;;;16.60;99.90;;;;;;4994490;28;20375;-85
2022/06/12 04:51:18;;;;;;;18.08;16.30;;;16.70;99.90;;;;;;4994184;28;20401;-84
2022/06/12 04:53:45;;;;;;;18.33;16.67;;;16.70;99.90;;;;;;5011726;28;20439;-87
2022/06/12 04:56:13;;;;;;;19.88;17.80;;;16.70;99.90;;;;;;4978582;28;20445;-83
2022/06/12 04:58:39;;;;;;;18.38;16.58;;;16.70;99.90;;;;;;4978825;28;20391;-84
2022/06/12 05:01:05;;;;;;;18.40;16.50;;;16.70;99.90;;;;;;5011413;28;20410;-84
2022/06/12 05:03:32;;;;;;;17.38;15.73;;;16.80;99.90;;;;;;5011165;28;20482;-83
2022/06/12 05:05:58;;;;;;;18.45;16.45;;;16.90;99.90;;;;;;5011159;28;20932;-84
2022/06/12 05:08:24;;;;;;;17.73;16.13;;;16.90;99.90;;;;;;5010729;28;20395;-83
2022/06/12 05:10:50;;;;;;;18.23;16.42;;;17.10;99.90;;;;;;5011216;28;20393;-84
2022/06/12 05:13:16;;;;;;;18.73;17.02;;;17.20;99.90;;;;;;4993491;28;20984;-85
2022/06/12 05:15:44;;;;;;;18.15;16.35;;;17.10;99.90;;;;;;5011886;28;20387;-83
2022/06/12 05:18:13;;;;;;;19.52;17.63;;;17.20;99.90;;;;;;4993825;28;20449;-84
2022/06/12 05:20:38;;;;;;;17.95;16.20;;;17.20;99.90;;;;;;5010900;28;20947;-83
2022/06/12 05:23:05;;;;;;;17.75;16.05;;;17.30;99.90;;;;;;5010776;28;20410;-84
2022/06/12 05:25:32;;;;;;;18.35;16.60;;;17.20;99.90;;;;;;4993535;28;20386;-84
2022/06/12 05:27:58;;;;;;;15.35;14.02;;;17.20;99.90;;;;;;4993115;28;20916;-84
2022/06/12 05:30:26;;;;;;;17.00;15.45;;;17.30;99.90;;;;;;4993291;28;20387;-84
2022/06/12 05:32:53;;;;;;;15.98;14.48;;;17.50;99.90;;;;;;4993472;28;20411;-83
2022/06/12 05:35:21;;;;;;;16.00;14.60;;;17.70;99.90;;;;;;4992918;28;20387;-84
2022/06/12 05:37:48;;;;;;;16.60;14.95;;;17.90;99.90;;;;;;4992194;28;20457;-84
2022/06/12 05:40:18;;;;;;;15.68;14.07;;;17.90;99.90;;;;;;4993147;28;20898;-84
2022/06/12 05:42:44;;;;;;;15.27;13.77;;;18.10;99.90;;;;;;5010758;28;20371;-85
2022/06/12 05:45:14;;;;;;;15.20;13.70;;;18.20;99.90;;;;;;5010554;28;20386;-85
2022/06/12 05:47:51;;;;;;;14.55;13.05;;;18.20;99.90;;;;;;4993108;28;20413;-85
2022/06/12 05:50:21;;;;;;;15.63;14.13;;;18.30;99.90;;;;;;5004054;28;20391;-86
2022/06/12 05:52:47;;;;;;;16.70;15.23;;;18.40;99.90;;;;;;4991612;28;20469;-85
2022/06/12 05:55:13;;;;;;;17.45;15.75;;;18.30;99.90;;;;;;5010376;28;20395;-86
2022/06/12 05:57:39;;;;;;;17.77;16.17;;;18.30;99.90;;;;;;4992626;28;20395;-85
2022/06/12 06:00:09;;;;;;;18.57;16.90;;;18.30;99.90;;;;;;4992122;28;20407;-86
2022/06/12 06:02:38;;;;;;;17.97;15.63;;;18.30;99.90;;;;;;5002383;28;22254;-84
2022/06/12 06:05:08;;;;;;;16.85;15.30;;;18.30;99.90;;;;;;4996866;28;20402;-85
2022/06/12 06:07:34;;;;;;;16.13;14.52;;;18.40;99.90;;;;;;5009440;28;20840;-85
2022/06/12 06:10:02;;;;;;;15.52;14.13;;;18.50;99.90;;;;;;4992578;28;20469;-87
2022/06/12 06:12:28;;;;;;;16.65;15.07;;;18.70;99.90;;;;;;4993286;28;20414;-85
2022/06/12 06:14:54;;;;;;;16.67;15.25;;;18.80;99.90;;;;;;4992200;28;20443;-86
2022/06/12 06:17:19;;;;;;;15.00;13.53;;;18.80;99.90;;;;;;5009808;28;20422;-86
2022/06/12 06:19:45;;;;;;;15.57;14.18;;;18.80;99.90;;;;;;4992583;28;20387;-87
2022/06/12 06:22:15;;;;;;;15.90;14.40;;;19.00;99.90;;;;;;4992003;28;20475;-86
2022/06/12 06:24:42;;;;;;;15.00;13.60;;;19.10;99.90;;;;;;4977853;28;20420;-87
2022/06/12 06:27:10;;;;;;;14.88;13.45;;;19.40;99.90;;;;;;4972799;28;21218;-88
2022/06/12 06:29:36;;;;;;;13.23;11.93;;;19.50;99.90;;;;;;4973161;28;20862;-88
2022/06/12 06:32:04;;;;;;;11.83;10.80;;;19.90;99.90;;;;;;4972727;28;20496;-86
2022/06/12 06:34:31;;;;;;;10.93;9.93;;;20.30;99.90;;;;;;4989953;28;20400;-86
2022/06/12 06:36:57;;;;;;;9.35;8.45;;;20.70;99.90;;;;;;4972757;28;20396;-84
2022/06/12 06:39:23;;;;;;;9.60;8.70;;;21.20;99.90;;;;;;4975054;28;20405;-87
2022/06/12 06:41:49;;;;;;;9.35;8.35;;;21.50;99.90;;;;;;4989361;28;20382;-88
2022/06/12 06:47:08;;;;;;;8.50;7.60;;;21.70;99.90;;;;;;4990090;28;20392;-89
2022/06/12 06:49:34;;;;;;;9.43;8.60;;;21.90;99.90;;;;;;4989310;28;20385;-88
2022/06/12 06:52:00;;;;;;;9.45;8.38;;;21.90;99.90;;;;;;4990615;28;20391;-86
2022/06/12 06:54:26;;;;;;;8.93;8.00;;;21.80;99.90;;;;;;4948221;28;20458;-87
2022/06/12 06:56:52;;;;;;;8.88;7.97;;;21.80;99.90;;;;;;4990050;28;20486;-87
2022/06/12 06:59:18;;;;;;;8.80;8.10;;;21.80;99.90;;;;;;4991342;28;20419;-87
2022/06/12 07:01:44;;;;;;;8.70;7.90;;;22.10;99.90;;;;;;4991113;28;20395;-87
2022/06/12 07:04:13;;;;;;;10.10;7.33;;;22.20;99.90;;;;;;4983945;28;20799;-86
2022/06/12 07:06:40;;;;;;;7.47;6.77;;;22.30;99.90;;;;;;4991006;28;20418;-89
2022/06/12 07:09:06;;;;;;;7.90;7.20;;;22.50;99.90;;;;;;4992315;28;20435;-88
2022/06/12 07:11:32;;;;;;;9.63;7.90;;;22.50;99.90;;;;;;5009301;28;20454;-86
2022/06/12 07:13:58;;;;;;;8.20;7.40;;;22.30;99.90;;;;;;4991102;28;20430;-85
2022/06/12 07:16:26;;;;;;;8.88;7.97;;;22.30;99.90;;;;;;4972076;28;20512;-86
2022/06/12 07:18:52;;;;;;;7.78;6.97;;;22.40;99.90;;;;;;4973260;28;20396;-86
2022/06/12 07:21:20;;;;;;;7.28;6.20;;;22.60;99.90;;;;;;4990289;28;20373;-87
2022/06/12 07:23:48;;;;;;;7.68;6.43;;;22.80;99.90;;;;;;4990243;28;20867;-86
2022/06/12 07:26:33;;;;;;;7.05;5.65;;;23.00;99.90;;;;;;4991237;28;20469;-89
2022/06/12 07:28:59;;;;;;;6.63;5.80;;;23.10;99.90;;;;;;4990502;28;20431;-89
2022/06/12 07:31:25;;;;;;;4.90;4.50;;;23.20;99.90;;;;;;4974663;28;20459;-88
2022/06/12 07:33:51;;;;;;;5.40;3.93;;;23.40;99.90;;;;;;4972719;28;20412;-88
2022/06/12 07:36:19;;;;;;;6.72;4.70;;;23.50;99.90;;;;;;4988490;28;20387;-89
2022/06/12 07:38:47;;;;;;;5.22;4.13;;;23.70;99.90;;;;;;4996895;28;20433;-87
2022/06/12 07:41:14;;;;;;;5.63;3.70;;;23.80;99.90;;;;;;5010578;28;20418;-88
2022/06/12 07:43:41;;;;;;;5.53;3.63;;;24.20;99.90;;;;;;5011503;28;20379;-88
2022/06/12 07:46:11;;;;;;;3.90;3.03;;;24.60;99.90;;;;;;4994746;28;20398;-89
2022/06/12 07:48:37;;;;;;;3.90;2.65;;;24.90;99.90;;;;;;4993866;28;20387;-90
2022/06/12 07:51:08;;;;;;;5.03;2.80;;;25.00;99.90;;;;;;4992008;28;20900;-87
2022/06/12 07:53:34;;;;;;;4.00;2.70;;;24.90;99.90;;;;;;5008788;28;20442;-88
2022/06/12 07:56:02;;;;;;;4.90;3.03;;;24.80;99.90;;;;;;4992331;28;20537;-90
2022/06/12 07:58:28;;;;;;;4.97;2.85;;;24.70;99.90;;;;;;4991440;28;20423;-88
2022/06/12 08:00:58;;;;;;;4.15;3.20;;;25.00;99.90;;;;;;4991011;28;20900;-87
2022/06/12 08:03:25;;;;;;;5.63;3.58;;;25.20;99.90;;;;;;4985514;28;20457;-89
2022/06/12 08:05:51;;;;;;;5.13;3.00;;;25.30;99.90;;;;;;5009602;28;20400;-87
2022/06/12 08:08:17;;;;;;;4.68;3.10;;;25.40;99.90;;;;;;5011711;28;20504;-89
2022/06/12 08:10:42;;;;;;;5.63;3.10;;;25.50;99.90;;;;;;5010250;28;20871;-88
2022/06/12 08:13:10;;;;;;;4.47;2.90;;;25.60;99.90;;;;;;5025056;28;21214;-87
2022/06/12 08:15:37;;;;;;;5.05;2.92;;;25.60;99.90;;;;;;5016710;28;20397;-89
2022/06/12 08:18:04;;;;;;;5.40;2.95;;;25.70;99.90;;;;;;5000857;28;20382;-87
2022/06/12 08:20:33;;;;;;;4.78;2.63;;;25.40;99.90;;;;;;5017070;28;20375;-88
2022/06/12 08:23:26;;;;;;;6.38;3.03;;;25.30;99.90;;;;;;5016342;28;20414;-90
2022/06/12 08:25:57;;;;;;;8.57;3.67;;;25.10;99.90;;;;;;5019416;28;20525;-90
2022/06/12 08:28:26;;;;;;;8.25;3.30;;;24.90;99.90;;;;;;5002615;28;20387;-88
2022/06/12 08:30:53;;;;;;;5.22;2.95;;;24.90;99.90;;;;;;5003342;28;20828;-89
2022/06/12 08:33:19;;;;;;;5.63;2.75;;;24.80;99.90;;;;;;5021620;28;20467;-87
2022/06/12 08:35:46;;;;;;;5.77;3.13;;;24.90;99.90;;;;;;5003168;28;20391;-89
2022/06/12 08:38:13;;;;;;;7.15;2.97;;;25.20;99.90;;;;;;5002953;28;20377;-89
2022/06/12 08:41:03;;;;;;;6.28;3.03;;;25.20;99.90;;;;;;5004135;28;20471;-88
2022/06/12 08:44:05;;;;;;;4.93;2.80;;;25.40;99.90;;;;;;5002369;28;20458;-88
2022/06/12 08:46:37;;;;;;;5.68;2.60;;;;;;;;;;5022436;28;20443;-88
2022/06/12 08:49:14;;;;;;;7.35;2.75;;;25.80;99.90;;;;;;5013713;28;20417;-87
2022/06/12 08:51:45;;;;;;;6.47;2.53;;;25.60;99.90;;;;;;5031789;28;20871;-86
2022/06/12 08:54:17;;;;;;;5.63;2.50;;;25.70;99.90;;;;;;5014139;28;20497;-90
2022/06/12 08:56:48;;;;;;;6.50;2.53;;;;;;;;;;5013881;28;20463;-88
2022/06/12 08:59:35;;;;;;;7.35;2.83;;;;;;;;;;5013981;28;20436;-92
2022/06/12 09:02:21;;;;;;;5.88;2.90;;;25.90;99.90;;;;;;5014352;28;20373;-88
2022/06/12 09:04:47;;;;;;;5.22;2.42;;;26.10;99.90;;;;;;5013304;28;20537;-88
2022/06/12 09:07:23;;;;;;;8.25;2.90;;;26.20;99.90;;;;;;5013461;28;20954;-89
2022/06/12 09:09:52;;;;;;;7.00;3.07;;;;;;;;;;5014421;28;20396;-89
2022/06/12 09:12:41;;;;;;;7.35;2.60;;;25.90;99.90;;;;;;5013634;28;20405;-89
2022/06/12 09:15:31;;;;;;;6.82;2.95;;;26.10;99.90;;;;;;5027260;28;20394;-90
2022/06/12 09:18:01;;;;;;;8.88;3.28;;;;;;;;;;5021140;28;20410;-89
2022/06/12 09:20:40;;;;;;;9.10;3.05;;;;;;;;;;5000921;28;20905;-91
2022/06/12 09:23:21;;;;;;;5.83;2.50;;;;;;;;;;5018142;28;20445;-90
2022/06/12 09:26:06;;;;;;;8.63;3.10;;;;;;;;;;5000623;28;20395;-89
2022/06/12 09:28:32;;;;;;;5.82;2.90;;;;;;;;;;5002525;28;20385;-91
2022/06/12 09:31:21;;;;;;;7.43;3.10;;;26.30;99.90;;;;;;5004751;28;20473;-87
2022/06/12 09:34:08;;;;;;;5.65;2.75;;;26.40;99.90;;;;;;5001689;28;20903;-84
2022/06/12 09:36:54;;;;;;;5.82;2.70;;;26.40;99.50;;;;;;5000011;28;20385;-87
2022/06/12 09:39:38;;;;;;;6.55;2.53;;;26.40;99.50;;;;;;5003069;28;20391;-87
2022/06/12 09:42:23;;;;;;;6.22;2.55;;;26.50;99.60;;;;;;5006956;28;20407;-88
2022/06/12 09:44:58;;;;;;;6.20;2.50;;;26.60;99.50;;;;;;5005168;28;20386;-89
2022/06/12 09:47:43;;;;;;;5.93;2.80;;;26.50;98.30;;;;;;4997133;28;21489;-86
2022/06/12 09:50:12;;;;;;;6.75;2.70;;;;;;;;;;4984856;28;20389;-88
2022/06/12 09:52:53;;;;;;;7.22;2.47;;;25.80;97.10;;;;;;5005817;28;20459;-89
2022/06/12 09:55:28;;;;;;;7.25;2.60;;;;;;;;;;4984223;28;20396;-89
2022/06/12 09:58:12;;;;;;;4.70;2.15;;;25.50;94.80;;;;;;5003871;28;20449;-87
2022/06/12 10:01:15;;;;;;;4.38;2.20;;;25.70;95.10;;;;;;4997864;28;20713;-87
2022/06/12 10:03:55;;;;;;;6.15;2.20;;;26.10;94.30;;;;;;4983796;28;20474;-86
2022/06/12 10:06:30;;;;;;;6.85;2.40;;;26.30;95.50;;;;;;4983849;28;20931;-89
2022/06/12 10:09:22;;;;;;;6.20;2.28;;;26.60;93.40;;;;;;4983401;28;20393;-84
2022/06/12 10:12:05;;;;;;;5.95;2.30;;;26.80;94.60;;;;;;4977775;28;20488;-84
2022/06/12 10:14:33;;;;;;;7.57;2.70;;;26.60;92.30;;;;;;4983123;28;20471;-87
2022/06/12 10:17:34;;;;;;;7.47;2.78;;;26.30;94.20;;;;;;5000730;28;20391;-87
2022/06/12 10:20:08;;;;;;;6.35;2.38;;;26.40;95.70;;;;;;4998307;28;20481;-85
2022/06/12 10:22:40;;;;;;;5.78;2.45;;;26.70;94.30;;;;;;4981806;28;20523;-88
2022/06/12 10:25:07;;;;;;;6.05;2.70;;;26.80;94.10;;;;;;4969993;28;20419;-88
2022/06/12 10:27:51;;;;;;;6.68;3.00;;;26.90;93.10;;;;;;4982222;28;20397;-86
2022/06/12 10:30:38;;;;;;;5.50;2.50;;;26.50;93.20;;;;;;4994802;28;20423;-86
2022/06/12 10:33:22;;;;;;;5.45;2.58;;;26.70;95.00;;;;;;4996150;28;20451;-86
2022/06/12 10:35:54;;;;;;;7.07;2.93;;;26.90;94.40;;;;;;5000488;28;20446;-87
2022/06/12 10:38:22;;;;;;;8.23;3.13;;;26.80;93.90;;;;;;5018237;28;20407;-88
2022/06/12 10:40:58;;;;;;;6.00;3.25;;;26.70;94.70;;;;;;5018930;28;20424;-86
2022/06/12 10:43:38;;;;;;;8.85;2.90;;;26.50;93.80;;;;;;5015321;28;20882;-85
2022/06/12 10:46:26;;;;;;;7.63;3.63;;;26.40;94.40;;;;;;4998407;28;20779;-88
2022/06/12 10:49:03;;;;;;;6.95;2.90;;;26.20;94.30;;;;;;5000476;28;20881;-88
2022/06/12 10:51:34;;;;;;;9.35;3.40;;;26.30;94.50;;;;;;4996412;28;20437;-86
2022/06/12 10:54:13;;;;;;;7.68;2.95;;;26.10;94.20;;;;;;5000362;28;20417;-86
2022/06/12 10:56:54;;;;;;;8.07;3.40;;;26.10;95.00;;;;;;5001764;28;20413;-87
2022/06/12 10:59:38;;;;;;;9.20;3.30;;;26.00;95.20;;;;;;5017326;28;20395;-87
2022/06/12 11:02:17;;;;;;;6.57;2.80;;;26.00;95.70;;;;;;5011107;28;20401;-88
2022/06/12 11:05:06;;;;;;;5.78;3.00;;;26.50;94.20;;;;;;5001082;28;20486;-87
2022/06/12 11:07:50;;;;;;;7.90;3.30;;;26.70;93.60;;;;;;5001403;28;20387;-86
2022/06/12 11:10:31;;;;;;;6.78;2.83;;;27.10;94.80;;;;;;4992665;28;20422;-89
2022/06/12 11:13:14;;;;;;;7.40;2.60;;;27.30;94.60;;;;;;5001659;28;20499;-87
2022/06/12 11:16:00;;;;;;;8.80;2.95;;;27.20;93.10;;;;;;5016576;28;20507;-85
2022/06/12 11:19:17;;;;;;;9.15;3.10;;;27.00;92.70;;;;;;4999855;28;20441;-87
2022/06/12 11:21:45;;;;;;;8.02;2.95;;;26.90;93.30;;;;;;4956603;28;20424;-85
2022/06/12 11:24:52;;;;;;;6.47;2.75;;;26.90;92.20;;;;;;4977148;28;20432;-88
2022/06/12 11:27:35;;;;;;;6.13;2.70;;;26.90;93.20;;;;;;4972268;28;20412;-89
2022/06/12 11:30:10;;;;;;;7.85;2.90;;;;;;;;;;4989535;28;20381;-86
2022/06/12 11:32:47;;;;;;;7.05;2.97;;;27.50;90.20;;;;;;4972003;28;20443;-88
2022/06/12 11:35:51;;;;;;;6.72;2.80;;;27.40;92.30;;;;;;4991459;28;20500;-89
2022/06/12 11:38:54;;;;;;;7.88;3.45;;;27.30;91.00;;;;;;4946365;28;20420;-86
2022/06/12 11:41:31;;;;;;;6.47;3.00;;;26.60;91.60;;;;;;4989610;28;20416;-88
2022/06/12 11:44:04;;;;;;;7.60;3.10;;;26.20;91.50;;;;;;4985901;28;20383;-85
2022/06/12 11:46:51;;;;;;;5.95;2.70;;;26.10;92.70;;;;;;4991166;28;20378;-88
2022/06/12 11:49:56;;;;;;;7.37;2.97;;;26.40;91.90;;;;;;4990767;28;20379;-89
2022/06/12 11:52:36;;;;;;;6.93;2.70;;;26.50;91.00;;;;;;4990804;28;20831;-89
2022/06/12 11:55:20;;;;;;;8.43;2.78;;;26.40;91.30;;;;;;5015432;28;20909;-86
2022/06/12 11:57:54;;;;;;;7.00;2.60;;;26.50;91.30;;;;;;4990763;28;20715;-89
2022/06/12 12:00:28;;;;;;;9.00;2.60;;;26.70;92.10;;;;;;4993883;28;20397;-89
2022/06/12 12:03:00;;;;;;;7.40;2.75;;;;;;;;;;4995982;28;20997;-88
2022/06/12 12:05:51;;;;;;;6.10;2.70;;;26.90;90.60;;;;;;4995563;28;20454;-87
2022/06/12 12:08:34;;;;;;;5.55;2.30;;;26.80;89.30;;;;;;4998129;28;20430;-85
2022/06/12 12:11:13;;;;;;;7.13;2.78;;;26.50;87.80;;;;;;4985839;28;20399;-88
2022/06/12 12:13:44;;;;;;;5.65;2.38;;;26.10;90.00;;;;;;4988426;28;20446;-86
2022/06/12 12:16:15;;;;;;;6.10;2.78;;;26.00;90.40;;;;;;5005186;28;20416;-86
2022/06/12 12:18:54;;;;;;;7.20;2.95;;;26.00;90.90;;;;;;4984103;28;20389;-87
2022/06/12 12:21:28;;;;;;;7.00;2.55;;;26.20;87.90;;;;;;5002930;28;20403;-86
2022/06/12 12:23:56;;;;;;;6.38;3.13;;;26.40;91.40;;;;;;4983993;28;20406;-89
2022/06/12 12:26:33;;;;;;;7.20;2.90;;;26.80;88.30;;;;;;4983348;28;21003;-88
2022/06/12 12:29:06;;;;;;;8.43;3.13;;;27.10;86.40;;;;;;4991763;28;20502;-86
2022/06/12 12:31:35;;;;;;;6.63;2.38;;;26.50;84.70;;;;;;4986792;28;20436;-89
2022/06/12 12:34:05;;;;;;;6.60;2.60;;;26.20;89.10;;;;;;4985109;28;20408;-92
2022/06/12 12:42:32;;;;;;;4.82;2.25;;;26.60;90.00;;;;;;4999316;28;20895;-87
2022/06/12 12:45:23;;;;;;;6.68;2.50;;;26.70;87.00;;;;;;4999237;28;20369;-88
2022/06/12 12:48:09;;;;;;;6.77;2.47;;;26.70;87.00;;;;;;4986234;28;20383;-88
2022/06/12 12:50:53;;;;;;;8.13;3.17;;;26.70;87.10;;;;;;5000171;28;20453;-88
2022/06/12 12:53:26;;;;;;;6.78;3.03;;;26.70;87.80;;;;;;5001294;28;20403;-85
2022/06/12 12:56:10;;;;;;;6.95;2.60;;;26.80;88.10;;;;;;5001788;28;20426;-86
2022/06/12 12:58:41;;;;;;;8.40;2.53;;;26.80;84.90;;;;;;5001986;28;20413;-87
2022/06/12 13:01:20;;;;;;;5.22;2.30;;;26.80;84.00;;;;;;5002931;28;20411;-88
2022/06/12 13:04:10;;;;;;;6.78;2.63;;;26.80;87.10;;;;;;5018781;28;20403;-85
2022/06/12 13:07:00;;;;;;;7.20;2.72;;;26.60;85.30;;;;;;5001380;28;20395;-84
2022/06/12 13:09:37;;;;;;;4.95;2.05;;;26.20;85.40;;;;;;5022100;28;21840;-87
2022/06/12 13:12:20;;;;;;;9.32;2.30;;;26.30;88.70;;;;;;4998832;28;20383;-87
2022/06/12 13:15:13;;;;;;;5.85;2.20;;;26.80;86.80;;;;;;5020407;28;20820;-86
2022/06/12 13:18:08;;;;;;;7.32;2.70;;;27.10;84.20;;;;;;5001211;28;20389;-86
2022/06/12 13:21:12;;;;;;;7.30;2.70;;;27.50;84.90;;;;;;5004364;28;20401;-88
2022/06/12 13:23:50;;;;;;;7.25;2.22;;;27.60;86.40;;;;;;5012966;28;20415;-85
2022/06/12 13:26:19;;;;;;;6.80;2.80;;;27.70;84.80;;;;;;5000046;28;20390;-87
2022/06/12 13:28:57;;;;;;;5.40;2.58;;;27.80;82.90;;;;;;5000576;28;20981;-87
2022/06/12 13:31:23;;;;;;;6.28;2.15;;;27.70;81.20;;;;;;5001658;28;20466;-86
2022/06/12 13:33:57;;;;;;;8.50;2.47;;;27.30;80.20;;;;;;5018529;28;20994;-84
2022/06/12 13:36:36;;;;;;;4.32;2.22;;;27.00;84.60;;;;;;5004771;28;20765;-87
2022/06/12 13:39:19;;;;;;;6.05;2.20;;;26.90;84.60;;;;;;5019650;28;20452;-89
2022/06/12 13:41:48;;;;;;;6.35;2.08;;;27.20;81.00;;;;;;5014031;28;20483;-88
2022/06/12 13:44:29;;;;;;;5.95;2.17;;;27.20;84.40;;;;;;5000973;28;20431;-88
2022/06/12 13:46:57;;;;;;;4.38;2.00;;;27.20;79.80;;;;;;4998790;28;20389;-86
2022/06/12 13:49:35;;;;;;;14.10;2.42;;;27.10;79.20;;;;;;4985553;28;20397;-84
2022/06/12 13:52:16;;;;;;;6.15;2.53;;;26.70;79.40;;;;;;5004666;28;20393;-87
2022/06/12 13:54:43;;;;;;;4.97;2.15;;;26.70;81.10;;;;;;5012179;28;20857;-88
2022/06/12 13:57:30;;;;;;;4.40;1.83;;;26.90;79.70;;;;;;5006391;28;20384;-88
2022/06/12 13:59:58;;;;;;;7.17;2.00;;;27.00;78.00;;;;;;5003108;28;20425;-89
2022/06/12 14:02:27;;;;;;;5.38;2.38;;;27.00;77.00;;;;;;4991100;28;20403;-88